createdAt,value
2023-02-12T00:00:56.388Z,19.98
2023-02-12T00:02:58.063Z,16.90
2023-02-12T00:04:59.696Z,17.95
2023-02-12T00:07:01.653Z,13.73
2023-02-12T00:09:03.493Z,13.43
2023-02-12T00:11:13.789Z,18.13
2023-02-12T00:13:16.092Z,15.80
2023-02-12T00:15:17.685Z,14.93
2023-02-12T00:17:19.395Z,20.10
2023-02-12T00:19:21.046Z,15.65
2023-02-12T00:21:23.503Z,13.80
2023-02-12T00:23:25.275Z,13.05
2023-02-12T00:25:26.911Z,15.38
2023-02-12T00:27:28.544Z,17.95
2023-02-12T00:29:30.168Z,15.73
2023-02-12T00:31:32.520Z,15.82
2023-02-12T00:33:34.176Z,18.10
2023-02-12T00:35:35.973Z,19.92
2023-02-12T00:37:40.641Z,18.50
2023-02-12T00:39:42.780Z,16.15
2023-02-12T00:41:44.422Z,15.50
2023-02-12T00:43:46.760Z,20.90
2023-02-12T00:45:48.846Z,19.05
2023-02-12T00:47:50.482Z,13.68
2023-02-12T00:49:52.190Z,14.15
2023-02-12T00:51:53.908Z,14.20
2023-02-12T00:53:55.550Z,16.02
2023-02-12T00:55:57.622Z,17.42
2023-02-12T00:57:59.976Z,19.75
2023-02-12T01:00:01.697Z,15.15
2023-02-12T01:02:04.452Z,14.90
2023-02-12T01:04:06.115Z,15.15
2023-02-12T01:06:08.217Z,16.00
2023-02-12T01:08:12.998Z,15.52
2023-02-12T01:10:14.652Z,24.83
2023-02-12T01:12:17.576Z,15.15
2023-02-12T01:14:19.296Z,15.30
2023-02-12T01:16:23.874Z,16.65
2023-02-12T01:18:25.616Z,12.88
2023-02-12T01:20:27.305Z,13.93
2023-02-12T01:22:28.988Z,12.60
2023-02-12T01:24:30.965Z,14.38
2023-02-12T01:26:33.273Z,12.63
2023-02-12T01:28:34.896Z,14.43
2023-02-12T01:30:36.590Z,14.32
2023-02-12T01:32:38.433Z,13.18
2023-02-12T01:34:40.055Z,13.25
2023-02-12T01:36:41.699Z,13.63
2023-02-12T01:38:43.409Z,13.27
2023-02-12T01:40:45.040Z,12.25
2023-02-12T01:42:46.743Z,13.50
2023-02-12T01:45:13.213Z,13.93
2023-02-12T01:47:17.870Z,15.25
2023-02-12T01:49:26.196Z,13.30
2023-02-12T01:51:28.943Z,16.55
2023-02-12T01:53:37.505Z,13.23
2023-02-12T01:55:39.875Z,17.17
2023-02-12T01:57:44.071Z,14.55
2023-02-12T01:59:50.434Z,15.43
2023-02-12T02:01:52.330Z,13.73
2023-02-12T02:04:01.177Z,12.43
2023-02-12T02:06:14.527Z,13.75
2023-02-12T02:08:16.414Z,15.43
2023-02-12T02:10:18.055Z,14.15
2023-02-12T02:12:38.591Z,13.13
2023-02-12T02:14:41.368Z,11.98
2023-02-12T02:16:47.764Z,12.73
2023-02-12T02:18:58.554Z,12.40
2023-02-12T02:21:34.268Z,10.48
2023-02-12T02:24:20.650Z,11.40
2023-02-12T02:26:49.965Z,13.85
2023-02-12T02:29:04.007Z,14.45
2023-02-12T02:31:16.745Z,15.23
2023-02-12T02:33:27.631Z,12.73
2023-02-12T02:35:38.049Z,16.98
2023-02-12T02:37:44.997Z,11.40
2023-02-12T02:39:53.170Z,12.48
2023-02-12T02:42:24.836Z,12.23
2023-02-12T02:44:43.016Z,13.63
2023-02-12T02:46:49.470Z,10.65
2023-02-12T02:48:54.468Z,13.02
2023-02-12T02:50:59.453Z,13.43
2023-02-12T02:53:30.743Z,12.80
2023-02-12T02:55:45.663Z,13.32
2023-02-12T02:57:57.442Z,11.50
2023-02-12T03:00:05.264Z,11.55
2023-02-12T03:02:11.755Z,16.45
2023-02-12T03:04:38.125Z,11.68
2023-02-12T03:06:59.971Z,12.23
2023-02-12T03:09:12.674Z,11.43
2023-02-12T03:11:26.460Z,13.00
2023-02-12T03:13:32.919Z,12.38
2023-02-12T03:15:39.640Z,14.48
2023-02-12T03:17:45.012Z,11.50
2023-02-12T03:19:59.546Z,11.75
2023-02-12T03:22:05.146Z,13.77
2023-02-12T03:24:22.283Z,15.15
2023-02-12T03:26:28.832Z,12.68
2023-02-12T03:28:33.425Z,12.55
2023-02-12T03:30:49.886Z,12.77
2023-02-12T03:33:14.991Z,14.05
2023-02-12T03:35:22.201Z,11.20
2023-02-12T03:37:36.421Z,12.40
2023-02-12T03:40:02.236Z,13.45
2023-02-12T03:42:29.816Z,17.77
2023-02-12T03:44:56.801Z,12.23
2023-02-12T03:47:03.399Z,14.00
2023-02-12T03:49:14.981Z,14.18
2023-02-12T03:51:22.098Z,12.27
2023-02-12T03:53:25.617Z,15.27
2023-02-12T03:55:27.319Z,14.45
2023-02-12T03:57:35.212Z,10.20
2023-02-12T03:59:38.596Z,12.80
2023-02-12T04:01:40.548Z,13.00
2023-02-12T04:03:42.288Z,13.40
2023-02-12T04:05:43.986Z,12.48
2023-02-12T04:07:45.696Z,14.57
2023-02-12T04:09:47.589Z,11.85
2023-02-12T04:12:07.622Z,12.75
2023-02-12T04:14:48.794Z,12.80
2023-02-12T04:17:22.597Z,12.10
2023-02-12T04:19:58.762Z,13.52
2023-02-12T04:22:15.665Z,13.65
2023-02-12T04:24:32.168Z,13.30
2023-02-12T04:26:37.692Z,16.00
2023-02-12T04:28:57.659Z,16.50
2023-02-12T04:31:31.463Z,14.23
2023-02-12T04:33:47.427Z,15.52
2023-02-12T04:36:01.665Z,12.70
2023-02-12T04:38:22.309Z,14.02
2023-02-12T04:40:24.254Z,13.00
2023-02-12T04:42:26.232Z,14.15
2023-02-12T04:44:31.016Z,14.82
2023-02-12T04:46:32.648Z,15.55
2023-02-12T04:48:35.872Z,13.32
2023-02-12T04:50:42.303Z,15.98
2023-02-12T04:52:43.961Z,13.63
2023-02-12T04:54:45.754Z,14.82
2023-02-12T04:56:48.233Z,17.50
2023-02-12T04:58:50.541Z,13.05
2023-02-12T05:00:52.161Z,17.02
2023-02-12T05:02:53.884Z,13.30
2023-02-12T05:04:55.626Z,14.90
2023-02-12T05:06:57.350Z,15.18
2023-02-12T05:08:58.959Z,13.65
2023-02-12T05:11:08.459Z,14.80
2023-02-12T05:13:10.781Z,13.82
2023-02-12T05:15:12.574Z,13.55
2023-02-12T05:17:14.248Z,21.80
2023-02-12T05:19:15.961Z,14.77
2023-02-12T05:21:17.778Z,14.77
2023-02-12T05:23:19.391Z,16.08
2023-02-12T05:25:21.427Z,15.38
2023-02-12T05:27:23.109Z,12.48
2023-02-12T05:29:24.781Z,14.45
2023-02-12T05:31:26.620Z,14.55
2023-02-12T05:33:28.441Z,15.00
2023-02-12T05:35:30.037Z,13.18
2023-02-12T05:37:35.031Z,13.40
2023-02-12T05:39:36.694Z,14.32
2023-02-12T05:41:38.501Z,12.25
2023-02-12T05:43:40.758Z,12.48
2023-02-12T05:45:45.026Z,12.75
2023-02-12T05:47:46.704Z,13.38
2023-02-12T05:49:48.365Z,18.42
2023-02-12T05:51:50.089Z,14.50
2023-02-12T05:53:55.828Z,16.08
2023-02-12T05:56:23.322Z,13.63
2023-02-12T05:58:24.975Z,12.63
2023-02-12T06:00:29.429Z,13.55
2023-02-12T06:02:34.889Z,12.60
2023-02-12T06:04:36.558Z,12.88
2023-02-12T06:06:38.172Z,12.50
2023-02-12T06:08:40.039Z,12.35
2023-02-12T06:10:41.736Z,11.57
2023-02-12T06:12:43.376Z,11.70
2023-02-12T06:14:45.038Z,12.60
2023-02-12T06:16:50.551Z,17.27
2023-02-12T06:18:53.626Z,15.13
2023-02-12T06:20:55.362Z,12.77
2023-02-12T06:22:57.095Z,12.60
2023-02-12T06:24:58.678Z,14.70
2023-02-12T06:27:00.372Z,13.93
2023-02-12T06:29:02.230Z,15.00
2023-02-12T06:31:04.098Z,14.80
2023-02-12T06:33:05.854Z,14.25
2023-02-12T06:35:07.687Z,16.27
2023-02-12T06:37:09.323Z,12.88
2023-02-12T06:39:11.909Z,12.27
2023-02-12T06:41:13.809Z,13.55
2023-02-12T06:43:15.839Z,12.00
2023-02-12T06:45:17.619Z,18.58
2023-02-12T06:47:19.262Z,12.00
2023-02-12T06:49:20.947Z,14.00
2023-02-12T06:51:23.684Z,12.10
2023-02-12T06:53:25.428Z,13.15
2023-02-12T06:55:27.719Z,13.15
2023-02-12T06:57:30.193Z,14.55
2023-02-12T06:59:31.998Z,13.25
2023-02-12T07:01:33.649Z,12.93
2023-02-12T07:03:35.514Z,11.32
2023-02-12T07:05:40.008Z,13.82
2023-02-12T07:07:41.705Z,13.90
2023-02-12T07:09:43.407Z,12.65
2023-02-12T07:11:45.071Z,13.63
2023-02-12T07:13:46.778Z,19.38
2023-02-12T07:15:48.448Z,12.80
2023-02-12T07:17:50.110Z,14.30
2023-02-12T07:19:51.713Z,13.10
2023-02-12T07:21:53.350Z,12.88
2023-02-12T07:23:55.469Z,13.68
2023-02-12T07:26:01.422Z,13.70
2023-02-12T07:28:03.160Z,27.08
2023-02-12T07:30:06.805Z,12.48
2023-02-12T07:32:08.495Z,13.45
2023-02-12T07:34:11.179Z,12.57
2023-02-12T07:36:15.419Z,14.07
2023-02-12T07:38:17.010Z,12.68
2023-02-12T07:40:18.687Z,13.40
2023-02-12T07:42:20.366Z,16.63
2023-02-12T07:44:22.098Z,14.75
2023-02-12T07:46:32.418Z,15.02
2023-02-12T07:48:34.093Z,14.32
2023-02-12T07:50:35.766Z,14.82
2023-02-12T07:52:37.560Z,15.85
2023-02-12T07:54:39.192Z,12.68
2023-02-12T07:56:42.390Z,18.25
2023-02-12T07:58:45.684Z,15.75
2023-02-12T08:00:47.407Z,14.00
2023-02-12T08:02:53.333Z,14.07
2023-02-12T08:04:58.633Z,18.98
2023-02-12T08:07:00.445Z,14.88
2023-02-12T08:09:04.801Z,14.40
2023-02-12T08:11:08.251Z,14.18
2023-02-12T08:13:09.901Z,14.38
2023-02-12T08:15:11.499Z,16.58
2023-02-12T08:17:13.278Z,17.15
2023-02-12T08:19:20.219Z,16.60
2023-02-12T08:21:25.653Z,14.75
2023-02-12T08:23:27.287Z,16.92
2023-02-12T08:25:28.947Z,18.85
2023-02-12T08:27:30.680Z,18.95
2023-02-12T08:29:32.442Z,18.17
2023-02-12T08:31:40.399Z,19.88
2023-02-12T08:33:42.170Z,16.95
2023-02-12T08:35:43.805Z,25.10
2023-02-12T08:37:45.462Z,20.60
2023-02-12T08:39:48.990Z,23.95
2023-02-12T08:41:50.893Z,16.25
2023-02-12T08:43:54.217Z,16.95
2023-02-12T08:45:58.250Z,16.70
2023-02-12T08:48:00.131Z,18.52
2023-02-12T08:50:01.873Z,17.60
2023-02-12T08:52:03.692Z,18.92
2023-02-12T08:54:07.757Z,16.60
2023-02-12T08:56:11.565Z,19.38
2023-02-12T08:58:13.217Z,19.95
2023-02-12T09:00:15.154Z,19.23
2023-02-12T09:02:16.873Z,20.73
2023-02-12T09:04:21.875Z,18.38
2023-02-12T09:06:25.122Z,17.35
2023-02-12T09:08:26.813Z,20.48
2023-02-12T09:10:28.428Z,25.80
2023-02-12T09:12:30.056Z,21.08
2023-02-12T09:14:31.690Z,19.92
2023-02-12T09:16:35.141Z,20.67
2023-02-12T09:18:37.283Z,18.85
2023-02-12T09:20:41.527Z,21.40
2023-02-12T09:22:43.153Z,21.42
2023-02-12T09:24:45.063Z,22.50
2023-02-12T09:26:46.740Z,25.00
2023-02-12T09:28:50.067Z,28.23
2023-02-12T09:30:54.483Z,20.88
2023-02-12T09:32:56.941Z,32.05
2023-02-12T09:34:58.584Z,21.02
2023-02-12T09:37:00.230Z,24.90
2023-02-12T09:39:02.063Z,24.40
2023-02-12T09:41:35.765Z,23.88
2023-02-12T09:43:44.721Z,20.90
2023-02-12T09:45:56.561Z,22.95
2023-02-12T09:48:13.809Z,32.35
2023-02-12T09:50:38.551Z,32.58
2023-02-12T09:52:40.466Z,26.02
2023-02-12T09:54:42.396Z,23.80
2023-02-12T09:56:50.380Z,31.73
2023-02-12T09:58:53.704Z,26.95
2023-02-12T10:00:55.362Z,29.98
2023-02-12T10:03:03.334Z,30.75
2023-02-12T10:05:16.073Z,30.83
2023-02-12T10:07:20.323Z,26.02
2023-02-12T10:09:40.858Z,25.63
2023-02-12T10:11:53.170Z,29.23
2023-02-12T10:14:17.882Z,22.65
2023-02-12T10:16:30.156Z,27.35
2023-02-12T10:18:58.559Z,20.70
2023-02-12T10:21:31.483Z,31.75
2023-02-12T10:24:07.496Z,25.63
2023-02-12T10:26:21.928Z,26.92
2023-02-12T10:28:31.492Z,30.67
2023-02-12T10:30:44.879Z,31.48
2023-02-12T10:32:48.398Z,30.42
2023-02-12T10:34:51.523Z,27.63
2023-02-12T10:36:58.325Z,30.50
2023-02-12T10:39:14.456Z,30.60
2023-02-12T10:41:16.407Z,32.08
2023-02-12T10:43:18.056Z,25.98
2023-02-12T10:45:22.031Z,19.05
2023-02-12T10:47:26.410Z,23.75
2023-02-12T10:49:31.459Z,23.23
2023-02-12T10:51:54.904Z,22.92
2023-02-12T10:53:56.596Z,19.73
2023-02-12T10:56:12.368Z,20.65
2023-02-12T10:58:24.322Z,21.98
2023-02-12T11:00:31.483Z,21.17
2023-02-12T11:02:34.406Z,17.77
2023-02-12T11:04:36.117Z,20.42
2023-02-12T11:07:04.922Z,20.10
2023-02-12T11:09:06.573Z,20.67
2023-02-12T11:11:13.619Z,15.85
2023-02-12T11:13:26.375Z,15.15
2023-02-12T11:15:35.504Z,18.05
2023-02-12T11:17:39.158Z,15.25
2023-02-12T11:19:41.784Z,14.07
2023-02-12T11:21:43.540Z,14.88
2023-02-12T11:23:46.218Z,13.50
2023-02-12T11:26:02.609Z,15.77
2023-02-12T11:28:07.337Z,12.25
2023-02-12T11:30:20.821Z,16.42
2023-02-12T11:32:22.698Z,12.63
2023-02-12T11:34:24.723Z,14.13
2023-02-12T11:36:27.707Z,11.10
2023-02-12T11:38:36.812Z,11.95
2023-02-12T11:40:38.498Z,10.15
2023-02-12T11:42:43.492Z,12.88
2023-02-12T11:44:53.675Z,8.38
2023-02-12T11:47:09.333Z,8.27
2023-02-12T11:49:20.548Z,8.60
2023-02-12T11:51:27.012Z,10.75
2023-02-12T11:53:32.269Z,9.68
2023-02-12T11:55:36.110Z,10.48
2023-02-12T11:57:43.537Z,9.77
2023-02-12T11:59:46.140Z,9.68
2023-02-12T12:01:48.669Z,10.82
2023-02-12T12:03:56.227Z,12.57
2023-02-12T12:06:05.175Z,9.60
2023-02-12T12:08:28.275Z,7.75
2023-02-12T12:10:39.985Z,9.68
2023-02-12T12:12:53.313Z,9.73
2023-02-12T12:15:18.242Z,9.40
2023-02-12T12:17:38.455Z,7.90
2023-02-12T12:19:58.359Z,5.63
2023-02-12T12:22:05.936Z,6.60
2023-02-12T12:24:32.937Z,5.53
2023-02-12T12:26:34.770Z,5.22
2023-02-12T12:28:41.533Z,4.65
2023-02-12T12:30:55.248Z,5.20
2023-02-12T12:33:00.053Z,4.57
2023-02-12T12:35:01.808Z,6.13
2023-02-12T12:37:23.549Z,5.35
2023-02-12T12:40:03.639Z,4.90
2023-02-12T12:42:33.144Z,4.32
2023-02-12T12:45:04.974Z,4.75
2023-02-12T12:47:24.777Z,4.85
2023-02-12T12:49:42.027Z,4.30
2023-02-12T12:51:58.912Z,3.83
2023-02-12T12:54:00.539Z,5.70
2023-02-12T12:56:04.845Z,4.07
2023-02-12T12:58:43.194Z,5.32
2023-02-12T13:01:10.945Z,4.20
2023-02-12T13:03:37.024Z,4.40
2023-02-12T13:05:55.143Z,3.30
2023-02-12T13:08:16.666Z,3.30
2023-02-12T13:10:51.418Z,3.95
2023-02-12T13:13:35.738Z,3.58
2023-02-12T13:15:54.637Z,3.65
2023-02-12T13:18:24.200Z,3.25
2023-02-12T13:20:34.997Z,4.68
2023-02-12T13:22:48.709Z,4.85
2023-02-12T13:24:57.157Z,4.88
2023-02-12T13:27:07.054Z,4.25
2023-02-12T13:29:17.524Z,4.38
2023-02-12T13:31:32.981Z,5.15
2023-02-12T13:33:42.827Z,4.10
2023-02-12T13:35:46.772Z,5.00
2023-02-12T13:37:52.618Z,4.72
2023-02-12T13:39:59.082Z,3.35
2023-02-12T13:42:03.888Z,4.18
2023-02-12T13:44:21.229Z,4.78
2023-02-12T13:46:29.033Z,5.57
2023-02-12T13:48:47.171Z,5.80
2023-02-12T13:51:01.531Z,6.13
2023-02-12T13:53:37.193Z,6.32
2023-02-12T13:55:46.462Z,5.90
2023-02-12T13:58:26.785Z,4.80
2023-02-12T14:00:50.091Z,4.97
2023-02-12T14:02:52.449Z,5.88
2023-02-12T14:04:54.081Z,4.72
2023-02-12T14:07:03.253Z,4.40
2023-02-12T14:09:10.609Z,6.53
2023-02-12T14:11:17.823Z,4.03
2023-02-12T14:13:22.569Z,4.85
2023-02-12T14:15:34.178Z,4.85
2023-02-12T14:17:36.670Z,3.67
2023-02-12T14:19:59.534Z,4.68
2023-02-12T14:22:02.173Z,3.70
2023-02-12T14:24:35.882Z,3.80
2023-02-12T14:26:38.430Z,4.32
2023-02-12T14:29:01.588Z,6.13
2023-02-12T14:31:21.348Z,4.63
2023-02-12T14:33:26.377Z,7.22
2023-02-12T14:35:31.249Z,4.38
2023-02-12T14:37:37.635Z,4.20
2023-02-12T14:39:39.548Z,5.35
2023-02-12T14:41:41.965Z,4.68
2023-02-12T14:44:01.876Z,5.00
2023-02-12T14:46:25.045Z,5.10
2023-02-12T14:48:41.467Z,4.35
2023-02-12T14:50:50.445Z,5.50
2023-02-12T14:52:56.030Z,5.15
2023-02-12T14:55:06.231Z,5.30
2023-02-12T14:57:29.306Z,5.97
2023-02-12T14:59:34.677Z,5.95
2023-02-12T15:01:36.691Z,5.13
2023-02-12T15:03:38.400Z,6.15
2023-02-12T15:05:48.300Z,5.43
2023-02-12T15:07:55.706Z,10.88
2023-02-12T15:10:07.393Z,5.53
2023-02-12T15:12:17.737Z,6.50
2023-02-12T15:14:31.390Z,5.60
2023-02-12T15:16:55.998Z,8.02
2023-02-12T15:19:02.532Z,10.20
2023-02-12T15:21:12.078Z,8.27
2023-02-12T15:23:52.961Z,9.30
2023-02-12T15:25:54.959Z,9.43
2023-02-12T15:28:03.955Z,9.88
2023-02-12T15:30:08.777Z,9.30
2023-02-12T15:32:24.005Z,11.38
2023-02-12T15:34:30.302Z,10.82
2023-02-12T15:36:34.453Z,10.05
2023-02-12T15:38:38.835Z,10.98
2023-02-12T15:40:56.762Z,11.93
2023-02-12T15:43:00.752Z,10.82
2023-02-12T15:45:08.943Z,11.50
2023-02-12T15:47:16.313Z,11.40
2023-02-12T15:49:24.312Z,11.40
2023-02-12T15:51:35.799Z,13.48
2023-02-12T15:53:38.893Z,10.25
2023-02-12T15:55:44.092Z,10.98
2023-02-12T15:57:57.216Z,12.27
2023-02-12T16:00:17.059Z,11.95
2023-02-12T16:02:31.053Z,11.63
2023-02-12T16:04:37.221Z,11.48
2023-02-12T16:06:39.076Z,13.57
2023-02-12T16:08:50.152Z,11.35
2023-02-12T16:10:53.625Z,12.20
2023-02-12T16:12:55.487Z,12.98
2023-02-12T16:15:00.040Z,13.02
2023-02-12T16:17:01.811Z,12.18
2023-02-12T16:19:21.779Z,12.93
2023-02-12T16:21:23.605Z,14.35
2023-02-12T16:23:25.430Z,13.60
2023-02-12T16:25:32.337Z,12.93
2023-02-12T16:27:34.976Z,14.55
2023-02-12T16:29:39.965Z,11.88
2023-02-12T16:31:53.301Z,11.40
2023-02-12T16:33:58.588Z,12.40
2023-02-12T16:36:05.148Z,13.35
2023-02-12T16:38:43.534Z,16.50
2023-02-12T16:41:20.432Z,15.45
2023-02-12T16:43:24.284Z,13.77
2023-02-12T16:45:26.588Z,13.80
2023-02-12T16:47:28.374Z,13.00
2023-02-12T16:49:30.145Z,14.55
2023-02-12T16:51:36.540Z,15.68
2023-02-12T16:53:43.823Z,13.20
2023-02-12T16:55:45.507Z,15.65
2023-02-12T16:57:47.110Z,15.48
2023-02-12T16:59:48.760Z,15.50
2023-02-12T17:02:02.577Z,15.32
2023-02-12T17:04:09.220Z,15.65
2023-02-12T17:06:11.653Z,18.00
2023-02-12T17:08:14.760Z,20.45
2023-02-12T17:10:17.150Z,16.38
2023-02-12T17:12:18.893Z,23.48
2023-02-12T17:14:21.063Z,18.92
2023-02-12T17:16:31.847Z,16.35
2023-02-12T17:18:36.020Z,21.80
2023-02-12T17:20:38.749Z,21.80
2023-02-12T17:22:42.780Z,19.02
2023-02-12T17:24:49.381Z,19.70
2023-02-12T17:26:51.486Z,18.95
2023-02-12T17:28:53.193Z,17.88
2023-02-12T17:30:55.037Z,17.75
2023-02-12T17:32:56.924Z,18.42
2023-02-12T17:34:58.591Z,17.02
2023-02-12T17:37:00.204Z,16.92
2023-02-12T17:39:05.344Z,18.27
2023-02-12T17:41:10.864Z,18.65
2023-02-12T17:43:12.594Z,18.08
2023-02-12T17:45:14.619Z,17.80
2023-02-12T17:47:16.238Z,17.65
2023-02-12T17:49:18.126Z,17.17
2023-02-12T17:51:20.284Z,16.88
2023-02-12T17:53:21.890Z,17.83
2023-02-12T17:55:23.644Z,17.00
2023-02-12T17:57:25.358Z,19.63
2023-02-12T17:59:27.135Z,16.50
2023-02-12T18:01:28.908Z,17.90
2023-02-12T18:03:30.611Z,14.88
2023-02-12T18:05:32.395Z,15.10
2023-02-12T18:07:35.576Z,15.38
2023-02-12T18:09:38.285Z,16.90
2023-02-12T18:11:42.269Z,14.90
2023-02-12T18:13:44.190Z,14.05
2023-02-12T18:15:45.890Z,11.77
2023-02-12T18:17:47.507Z,13.88
2023-02-12T18:19:49.413Z,14.07
2023-02-12T18:21:51.094Z,13.43
2023-02-12T18:23:54.024Z,12.75
2023-02-12T18:25:55.621Z,13.95
2023-02-12T18:27:57.350Z,11.43
2023-02-12T18:29:59.188Z,13.25
2023-02-12T18:32:00.852Z,13.25
2023-02-12T18:34:02.784Z,14.80
2023-02-12T18:36:06.865Z,12.23
2023-02-12T18:38:08.540Z,11.65
2023-02-12T18:40:11.368Z,12.20
2023-02-12T18:42:12.974Z,11.88
2023-02-12T18:44:15.100Z,13.60
2023-02-12T18:46:17.971Z,13.80
2023-02-12T18:48:19.625Z,13.50
2023-02-12T18:50:21.368Z,14.60
2023-02-12T18:52:23.021Z,16.85
2023-02-12T18:54:24.765Z,16.45
2023-02-12T18:56:26.364Z,21.98
2023-02-12T18:58:31.122Z,21.50
2023-02-12T19:00:32.941Z,19.48
2023-02-12T19:02:34.553Z,19.48
2023-02-12T19:04:36.360Z,14.57
2023-02-12T19:06:40.990Z,22.38
2023-02-12T19:08:42.874Z,19.33
2023-02-12T19:10:44.766Z,16.77
2023-02-12T19:12:46.423Z,17.02
2023-02-12T19:14:48.191Z,18.65
2023-02-12T19:16:50.490Z,15.55
2023-02-12T19:18:54.881Z,15.25
2023-02-12T19:20:56.792Z,14.85
2023-02-12T19:22:58.588Z,18.42
2023-02-12T19:25:00.282Z,16.98
2023-02-12T19:27:01.944Z,14.75
2023-02-12T19:29:04.881Z,19.40
2023-02-12T19:31:17.595Z,18.05
2023-02-12T19:33:19.489Z,15.15
2023-02-12T19:35:21.100Z,19.17
2023-02-12T19:37:22.907Z,15.27
2023-02-12T19:39:25.013Z,13.35
2023-02-12T19:41:28.495Z,14.70
2023-02-12T19:43:30.284Z,14.25
2023-02-12T19:45:33.020Z,22.75
2023-02-12T19:47:34.644Z,18.05
2023-02-12T19:49:38.067Z,23.38
2023-02-12T19:51:41.699Z,17.38
2023-02-12T19:53:43.850Z,16.30
2023-02-12T19:55:45.478Z,21.98
2023-02-12T19:57:48.035Z,19.23
2023-02-12T19:59:49.703Z,21.48
2023-02-12T20:01:51.509Z,17.85
2023-02-12T20:03:53.890Z,26.73
2023-02-12T20:06:09.511Z,30.10
2023-02-12T20:08:11.231Z,18.63
2023-02-12T20:10:13.200Z,18.25
2023-02-12T20:12:14.817Z,26.33
2023-02-12T20:14:17.024Z,19.08
2023-02-12T20:16:21.391Z,22.15
2023-02-12T20:18:23.379Z,23.48
2023-02-12T20:20:25.055Z,26.80
2023-02-12T20:22:26.662Z,25.25
2023-02-12T20:24:30.096Z,21.45
2023-02-12T20:26:33.605Z,22.92
2023-02-12T20:28:36.344Z,23.85
2023-02-12T20:30:42.376Z,16.85
2023-02-12T20:32:47.417Z,18.05
2023-02-12T20:34:52.054Z,20.02
2023-02-12T20:36:54.314Z,26.70
2023-02-12T20:38:56.335Z,19.02
2023-02-12T20:41:02.412Z,19.10
2023-02-12T20:43:04.148Z,20.35
2023-02-12T20:45:06.243Z,26.30
2023-02-12T20:47:07.939Z,22.13
2023-02-12T20:49:12.784Z,19.05
2023-02-12T20:51:22.843Z,23.77
2023-02-12T20:53:24.612Z,32.97
2023-02-12T20:55:26.210Z,18.92
2023-02-12T20:57:27.838Z,24.10
2023-02-12T20:59:29.507Z,25.38
2023-02-12T21:01:40.053Z,27.00
2023-02-12T21:03:42.103Z,16.30
2023-02-12T21:05:43.760Z,25.17
2023-02-12T21:07:45.676Z,20.40
2023-02-12T21:09:47.327Z,20.13
2023-02-12T21:11:49.342Z,22.52
2023-02-12T21:14:02.337Z,17.38
2023-02-12T21:16:09.087Z,23.85
2023-02-12T21:18:10.786Z,19.90
2023-02-12T21:20:12.452Z,21.63
2023-02-12T21:22:14.175Z,18.23
2023-02-12T21:24:18.773Z,20.48
2023-02-12T21:26:22.591Z,22.95
2023-02-12T21:28:24.326Z,19.15
2023-02-12T21:30:25.948Z,16.17
2023-02-12T21:32:27.826Z,22.42
2023-02-12T21:34:29.963Z,15.80
2023-02-12T21:36:36.997Z,21.92
2023-02-12T21:38:40.120Z,14.75
2023-02-12T21:40:41.757Z,23.02
2023-02-12T21:42:43.409Z,23.05
2023-02-12T21:44:48.162Z,22.17
2023-02-12T21:46:49.986Z,17.98
2023-02-12T21:48:52.047Z,28.02
2023-02-12T21:50:53.706Z,25.42
2023-02-12T21:52:55.353Z,19.70
2023-02-12T21:54:57.496Z,24.77
2023-02-12T21:56:59.903Z,20.40
2023-02-12T21:59:01.719Z,18.40
2023-02-12T22:01:08.639Z,20.05
2023-02-12T22:03:10.376Z,25.20
2023-02-12T22:05:12.045Z,21.63
2023-02-12T22:07:13.641Z,19.73
2023-02-12T22:09:16.969Z,31.55
2023-02-12T22:11:19.379Z,19.23
2023-02-12T22:13:21.041Z,18.02
2023-02-12T22:15:22.953Z,21.70
2023-02-12T22:17:24.615Z,23.63
2023-02-12T22:19:26.299Z,19.38
2023-02-12T22:21:29.980Z,20.27
2023-02-12T22:23:32.126Z,25.65
2023-02-12T22:25:33.989Z,23.75
2023-02-12T22:27:35.605Z,21.17
2023-02-12T22:29:37.376Z,24.60
2023-02-12T22:31:41.104Z,25.55
2023-02-12T22:33:42.932Z,25.70
2023-02-12T22:35:44.550Z,22.23
2023-02-12T22:37:46.305Z,17.75
2023-02-12T22:39:47.939Z,20.50
2023-02-12T22:41:49.723Z,20.60
2023-02-12T22:43:51.432Z,23.05
2023-02-12T22:45:53.151Z,21.77
2023-02-12T22:47:54.894Z,26.20
2023-02-12T22:49:56.540Z,20.20
2023-02-12T22:51:58.222Z,21.80
2023-02-12T22:54:00.600Z,22.92
2023-02-12T22:56:04.028Z,21.75
2023-02-12T22:58:05.674Z,28.13
2023-02-12T23:00:08.478Z,21.15
2023-02-12T23:02:10.346Z,24.13
2023-02-12T23:04:16.983Z,19.98
2023-02-12T23:06:23.645Z,17.73
2023-02-12T23:08:28.238Z,33.95
2023-02-12T23:10:29.840Z,23.02
2023-02-12T23:12:31.509Z,24.25
2023-02-12T23:14:36.113Z,18.05
2023-02-12T23:16:38.090Z,17.52
2023-02-12T23:18:39.773Z,23.13
2023-02-12T23:20:41.447Z,15.68
2023-02-12T23:22:43.245Z,22.50
2023-02-12T23:24:46.191Z,17.92
2023-02-12T23:26:47.793Z,17.75
2023-02-12T23:28:49.489Z,19.83
2023-02-12T23:30:52.283Z,24.40
2023-02-12T23:32:54.290Z,17.67
2023-02-12T23:34:56.177Z,19.83
2023-02-12T23:36:58.067Z,15.95
2023-02-12T23:39:00.148Z,19.98
2023-02-12T23:41:01.765Z,14.88
2023-02-12T23:43:04.709Z,16.08
2023-02-12T23:45:07.209Z,23.02
2023-02-12T23:47:08.838Z,21.67
2023-02-12T23:49:10.690Z,18.73
2023-02-12T23:51:12.328Z,19.23
2023-02-12T23:53:14.012Z,20.98
2023-02-12T23:55:15.951Z,15.40
2023-02-12T23:57:17.641Z,17.90
2023-02-12T23:59:19.440Z,19.15
